createdAt,value
2023-04-22T00:01:51.491Z,24.80
2023-04-22T00:04:21.317Z,24.80
2023-04-22T00:06:49.729Z,24.80
2023-04-22T00:09:20.882Z,24.80
2023-04-22T00:11:50.468Z,24.80
2023-04-22T00:14:18.663Z,24.70
2023-04-22T00:16:47.015Z,24.70
2023-04-22T00:19:15.122Z,24.70
2023-04-22T00:21:43.240Z,24.60
2023-04-22T00:24:11.292Z,24.60
2023-04-22T00:26:39.414Z,24.60
2023-04-22T00:29:08.904Z,24.60
2023-04-22T00:31:36.993Z,24.60
2023-04-22T00:34:05.170Z,24.50
2023-04-22T00:36:33.236Z,24.50
2023-04-22T00:39:01.431Z,24.50
2023-04-22T00:41:31.025Z,24.40
2023-04-22T00:44:01.184Z,24.40
2023-04-22T00:46:31.852Z,24.40
2023-04-22T00:49:00.268Z,24.40
2023-04-22T00:51:28.339Z,24.40
2023-04-22T00:53:56.444Z,24.30
2023-04-22T00:56:27.584Z,24.30
2023-04-22T00:58:56.464Z,24.30
2023-04-22T01:01:24.873Z,24.30
2023-04-22T01:03:55.158Z,24.30
2023-04-22T01:06:25.422Z,24.30
2023-04-22T01:08:53.560Z,24.20
2023-04-22T01:11:21.686Z,24.20
2023-04-22T01:13:49.794Z,24.20
2023-04-22T01:16:18.233Z,24.20
2023-04-22T01:18:46.709Z,24.10
2023-04-22T01:21:17.123Z,24.10
2023-04-22T01:23:46.790Z,24.10
2023-04-22T01:26:14.893Z,24.10
2023-04-22T01:28:43.313Z,24.10
2023-04-22T01:31:11.460Z,24.10
2023-04-22T01:33:39.823Z,24.00
2023-04-22T01:36:09.827Z,24.00
2023-04-22T01:38:39.866Z,24.00
2023-04-22T01:41:09.654Z,24.00
2023-04-22T01:43:37.655Z,23.90
2023-04-22T01:46:06.799Z,23.90
2023-04-22T01:48:35.974Z,23.90
2023-04-22T01:51:04.362Z,23.90
2023-04-22T01:53:32.517Z,23.90
2023-04-22T01:56:01.270Z,23.90
2023-04-22T01:58:32.052Z,23.90
2023-04-22T02:01:00.186Z,23.90
2023-04-22T02:03:28.404Z,23.90
2023-04-22T02:05:56.594Z,23.90
2023-04-22T02:08:24.699Z,23.80
2023-04-22T02:10:52.776Z,23.90
2023-04-22T02:13:20.857Z,23.80
2023-04-22T02:15:50.630Z,23.80
2023-04-22T02:18:19.836Z,23.80
2023-04-22T02:20:47.893Z,23.80
2023-04-22T02:23:16.042Z,23.80
2023-04-22T02:25:49.670Z,23.90
2023-04-22T02:28:18.207Z,23.80
2023-04-22T02:30:47.032Z,23.80
2023-04-22T02:33:16.490Z,23.80
2023-04-22T02:35:44.539Z,23.80
2023-04-22T02:38:12.658Z,23.70
2023-04-22T02:40:40.809Z,23.70
2023-04-22T02:43:08.898Z,23.70
2023-04-22T02:45:36.994Z,23.70
2023-04-22T02:48:05.376Z,23.70
2023-04-22T02:50:34.817Z,23.70
2023-04-22T02:53:02.925Z,23.70
2023-04-22T02:55:30.998Z,23.60
2023-04-22T02:57:59.072Z,23.60
2023-04-22T03:00:27.382Z,23.60
2023-04-22T03:02:55.801Z,23.60
2023-04-22T03:05:24.104Z,23.60
2023-04-22T03:07:53.893Z,23.60
2023-04-22T03:10:22.102Z,23.60
2023-04-22T03:12:50.269Z,23.60
2023-04-22T03:15:21.122Z,23.60
2023-04-22T03:17:49.745Z,23.50
2023-04-22T03:20:17.917Z,23.50
2023-04-22T03:22:46.070Z,23.50
2023-04-22T03:25:15.605Z,23.50
2023-04-22T03:27:43.712Z,23.50
2023-04-22T03:30:12.399Z,23.50
2023-04-22T03:32:40.541Z,23.50
2023-04-22T03:35:09.087Z,23.50
2023-04-22T03:37:37.171Z,23.50
2023-04-22T03:40:06.034Z,23.50
2023-04-22T03:42:35.503Z,23.40
2023-04-22T03:45:03.686Z,23.40
2023-04-22T03:47:31.816Z,23.40
2023-04-22T03:49:59.891Z,23.40
2023-04-22T03:52:27.981Z,23.50
2023-04-22T03:54:56.024Z,23.50
2023-04-22T03:57:24.137Z,23.50
2023-04-22T03:59:53.562Z,23.50
2023-04-22T04:02:21.729Z,23.50
2023-04-22T04:04:50.156Z,23.50
2023-04-22T04:07:18.446Z,23.50
2023-04-22T04:09:46.693Z,23.50
2023-04-22T04:12:14.783Z,23.50
2023-04-22T04:14:42.859Z,23.50
2023-04-22T04:17:14.154Z,23.50
2023-04-22T04:19:42.643Z,23.50
2023-04-22T04:22:11.019Z,23.50
2023-04-22T04:24:42.129Z,23.50
2023-04-22T04:27:11.830Z,23.50
2023-04-22T04:29:41.387Z,23.50
2023-04-22T04:32:10.023Z,23.50
2023-04-22T04:34:39.604Z,23.60
2023-04-22T04:37:07.957Z,23.60
2023-04-22T04:39:36.028Z,23.50
2023-04-22T04:42:04.189Z,23.60
2023-04-22T04:44:32.696Z,23.60
2023-04-22T04:47:00.976Z,23.60
2023-04-22T04:49:30.620Z,23.60
2023-04-22T04:52:01.831Z,23.60
2023-04-22T04:54:30.359Z,23.60
2023-04-22T04:56:58.566Z,23.60
2023-04-22T04:59:26.652Z,23.60
2023-04-22T05:01:56.113Z,23.70
2023-04-22T05:04:24.458Z,23.70
2023-04-22T05:06:52.755Z,23.70
2023-04-22T05:09:22.200Z,23.70
2023-04-22T05:11:50.688Z,23.70
2023-04-22T05:14:18.737Z,23.70
2023-04-22T05:16:46.923Z,23.70
2023-04-22T05:19:15.012Z,23.70
2023-04-22T05:21:43.113Z,23.60
2023-04-22T05:24:11.152Z,23.60
2023-04-22T05:26:40.697Z,23.50
2023-04-22T05:29:09.007Z,23.50
2023-04-22T05:31:37.104Z,23.40
2023-04-22T05:34:05.241Z,23.30
2023-04-22T05:36:33.301Z,23.30
2023-04-22T05:39:01.658Z,23.40
2023-04-22T05:41:29.757Z,23.50
2023-04-22T05:43:59.256Z,23.60
2023-04-22T05:46:27.451Z,23.60
2023-04-22T05:48:56.148Z,23.60
2023-04-22T05:51:24.649Z,23.70
2023-04-22T05:53:52.725Z,23.70
2023-04-22T05:56:22.129Z,23.70
2023-04-22T05:58:50.213Z,23.70
2023-04-22T06:01:19.691Z,23.70
2023-04-22T06:03:48.197Z,23.90
2023-04-22T06:06:16.466Z,24.00
2023-04-22T06:08:44.559Z,24.00
2023-04-22T06:11:12.617Z,24.20
2023-04-22T06:13:40.698Z,24.30
2023-04-22T06:18:43.528Z,24.40
2023-04-22T06:21:11.782Z,24.50
2023-04-22T06:23:39.851Z,24.50
2023-04-22T06:26:07.991Z,24.60
2023-04-22T06:28:36.108Z,24.70
2023-04-22T06:31:04.274Z,24.70
2023-04-22T06:33:32.504Z,24.70
2023-04-22T06:36:02.031Z,24.70
2023-04-22T06:38:30.127Z,24.80
2023-04-22T06:40:58.190Z,24.90
2023-04-22T06:43:26.414Z,24.90
2023-04-22T06:45:54.456Z,25.00
2023-04-22T06:48:22.575Z,25.00
2023-04-22T06:50:50.607Z,25.10
2023-04-22T06:53:20.247Z,25.20
2023-04-22T06:55:48.361Z,25.30
2023-04-22T06:58:16.462Z,25.30
2023-04-22T07:00:44.602Z,25.30
2023-04-22T07:03:12.849Z,25.30
2023-04-22T07:05:41.080Z,25.30
2023-04-22T07:08:09.274Z,25.20
2023-04-22T07:10:38.770Z,25.30
2023-04-22T07:13:06.932Z,25.40
2023-04-22T07:15:35.371Z,25.50
2023-04-22T07:18:03.461Z,25.60
2023-04-22T07:20:31.536Z,25.70
2023-04-22T07:22:59.630Z,25.80
2023-04-22T07:25:27.699Z,26.00
2023-04-22T07:27:57.166Z,26.10
2023-04-22T07:30:25.405Z,26.30
2023-04-22T07:32:53.608Z,26.40
2023-04-22T07:35:21.698Z,26.50
2023-04-22T07:37:49.770Z,26.60
2023-04-22T07:40:18.028Z,26.80
2023-04-22T07:42:46.147Z,26.80
2023-04-22T07:45:15.623Z,26.80
2023-04-22T07:47:43.799Z,26.80
2023-04-22T07:50:12.549Z,26.80
2023-04-22T07:52:40.822Z,26.70
2023-04-22T07:55:09.867Z,26.60
2023-04-22T07:57:39.120Z,26.70
2023-04-22T08:00:08.836Z,26.80
2023-04-22T08:02:38.190Z,26.80
2023-04-22T08:05:07.338Z,27.20
2023-04-22T08:07:35.480Z,27.40
2023-04-22T08:10:03.691Z,27.60
2023-04-22T08:12:31.736Z,27.80
2023-04-22T08:14:59.808Z,28.00
2023-04-22T08:17:28.247Z,28.20
2023-04-22T08:19:57.748Z,28.40
2023-04-22T08:22:25.821Z,28.80
2023-04-22T08:24:53.933Z,29.20
2023-04-22T08:27:22.892Z,29.60
2023-04-22T08:29:51.002Z,30.00
2023-04-22T08:32:20.071Z,30.40
2023-04-22T08:37:19.937Z,30.90
2023-04-22T08:39:47.804Z,31.20
2023-04-22T08:42:16.415Z,31.40
2023-04-22T08:44:46.354Z,31.60
2023-04-22T08:47:15.822Z,31.90
2023-04-22T08:49:44.773Z,32.00
2023-04-22T08:52:15.283Z,32.30
2023-04-22T08:54:44.777Z,32.50
2023-04-22T08:57:13.272Z,32.70
2023-04-22T08:59:42.587Z,33.00
2023-04-22T09:02:14.701Z,33.30
2023-04-22T09:04:43.776Z,33.50
2023-04-22T09:07:15.287Z,33.80
2023-04-22T09:09:45.982Z,34.10
2023-04-22T09:12:14.180Z,34.30
2023-04-22T09:14:43.073Z,34.60
2023-04-22T09:17:11.576Z,34.70
2023-04-22T09:19:39.973Z,35.00
2023-04-22T09:22:14.220Z,35.20
2023-04-22T09:24:50.093Z,35.50
2023-04-22T09:27:18.344Z,35.70
2023-04-22T09:29:50.323Z,35.90
2023-04-22T09:32:18.510Z,36.10
2023-04-22T09:34:52.560Z,36.40
2023-04-22T09:37:23.975Z,36.70
2023-04-22T09:39:53.950Z,37.00
2023-04-22T09:42:23.345Z,37.30
2023-04-22T09:44:53.280Z,37.60
2023-04-22T09:47:23.646Z,37.90
2023-04-22T09:49:51.988Z,38.10
2023-04-22T09:52:26.863Z,38.20
2023-04-22T09:54:56.449Z,38.20
2023-04-22T09:57:25.305Z,37.40
2023-04-22T09:59:54.111Z,36.90
2023-04-22T10:02:30.220Z,37.20
2023-04-22T10:04:58.999Z,37.60
2023-04-22T10:07:31.532Z,37.90
2023-04-22T10:10:01.375Z,38.10
2023-04-22T10:12:35.172Z,36.80
2023-04-22T10:15:04.584Z,35.90
2023-04-22T10:17:36.420Z,35.20
2023-04-22T10:20:07.787Z,34.60
2023-04-22T10:22:36.698Z,34.20
2023-04-22T10:25:06.911Z,33.80
2023-04-22T10:27:35.034Z,33.50
2023-04-22T10:30:03.274Z,33.20
2023-04-22T10:32:32.018Z,32.90
2023-04-22T10:35:11.907Z,32.70
2023-04-22T10:37:43.561Z,32.50
2023-04-22T10:40:17.215Z,32.30
2023-04-22T10:42:50.292Z,32.30
2023-04-22T10:45:18.389Z,32.10
2023-04-22T10:47:46.670Z,32.10
2023-04-22T10:50:26.492Z,32.10
2023-04-22T10:52:58.409Z,32.00
2023-04-22T10:55:50.454Z,32.00
2023-04-22T10:58:21.752Z,31.90
2023-04-22T11:00:54.542Z,31.90
2023-04-22T11:03:28.728Z,31.80
2023-04-22T11:06:17.044Z,31.70
2023-04-22T11:08:48.975Z,31.70
2023-04-22T11:11:20.608Z,31.70
2023-04-22T11:13:51.956Z,31.60
2023-04-22T11:16:23.411Z,31.60
2023-04-22T11:18:51.750Z,31.70
2023-04-22T11:21:20.695Z,31.70
2023-04-22T11:23:52.887Z,31.60
2023-04-22T11:26:35.056Z,31.60
2023-04-22T11:29:03.197Z,31.70
2023-04-22T11:31:31.310Z,31.70
2023-04-22T11:34:00.556Z,31.70
2023-04-22T11:36:28.844Z,31.70
2023-04-22T11:38:57.262Z,31.60
2023-04-22T11:41:26.755Z,31.40
2023-04-22T11:43:55.693Z,31.30
2023-04-22T11:46:30.668Z,31.40
2023-04-22T11:49:13.539Z,31.60
2023-04-22T11:51:54.344Z,31.70
2023-04-22T11:54:32.708Z,31.70
2023-04-22T11:57:04.393Z,31.70
2023-04-22T11:59:33.711Z,31.80
2023-04-22T12:02:01.958Z,31.90
2023-04-22T12:04:30.080Z,31.90
2023-04-22T12:06:58.487Z,31.90
2023-04-22T12:09:26.848Z,31.90
2023-04-22T12:11:54.927Z,31.80
2023-04-22T12:14:32.460Z,31.70
2023-04-22T12:17:00.728Z,31.60
2023-04-22T12:19:28.819Z,31.30
2023-04-22T12:21:57.585Z,31.20
2023-04-22T12:24:29.702Z,31.10
2023-04-22T12:26:58.643Z,31.10
2023-04-22T12:29:33.480Z,31.10
2023-04-22T12:32:01.918Z,31.20
2023-04-22T12:34:30.053Z,31.40
2023-04-22T12:36:58.108Z,31.50
2023-04-22T12:39:26.229Z,31.70
2023-04-22T12:41:54.339Z,31.70
2023-04-22T12:44:24.892Z,31.50
2023-04-22T12:46:54.754Z,31.40
2023-04-22T12:49:23.012Z,31.40
2023-04-22T12:51:51.328Z,31.60
2023-04-22T12:54:20.627Z,31.80
2023-04-22T12:56:49.268Z,32.00
2023-04-22T12:59:17.451Z,32.00
2023-04-22T13:01:45.663Z,32.00
2023-04-22T13:04:15.294Z,32.00
2023-04-22T13:06:44.371Z,32.00
2023-04-22T13:09:13.004Z,32.00
2023-04-22T13:11:41.147Z,31.80
2023-04-22T13:14:09.236Z,31.70
2023-04-22T13:16:37.421Z,31.50
2023-04-22T13:19:05.613Z,31.40
2023-04-22T13:21:35.849Z,31.20
2023-04-22T13:24:04.304Z,31.30
2023-04-22T13:26:32.420Z,31.50
2023-04-22T13:29:02.657Z,31.70
2023-04-22T13:31:31.121Z,31.90
2023-04-22T13:33:59.274Z,31.90
2023-04-22T13:36:27.850Z,31.70
2023-04-22T13:38:58.726Z,31.50
2023-04-22T13:41:26.800Z,31.30
2023-04-22T13:43:56.264Z,31.30
2023-04-22T13:46:25.034Z,31.40
2023-04-22T13:48:53.289Z,31.70
2023-04-22T13:51:21.389Z,31.80
2023-04-22T13:53:49.482Z,32.00
2023-04-22T13:56:18.988Z,32.10
2023-04-22T13:58:47.705Z,32.10
2023-04-22T14:01:16.041Z,31.90
2023-04-22T14:03:44.477Z,31.80
2023-04-22T14:06:12.880Z,31.70
2023-04-22T14:08:41.535Z,31.50
2023-04-22T14:11:10.127Z,31.30
2023-04-22T14:13:40.415Z,31.20
2023-04-22T14:16:10.160Z,31.00
2023-04-22T14:18:39.460Z,30.90
2023-04-22T14:21:09.345Z,30.80
2023-04-22T14:23:37.925Z,30.70
2023-04-22T14:26:06.600Z,30.50
2023-04-22T14:28:35.410Z,30.20
2023-04-22T14:31:05.421Z,30.10
2023-04-22T14:33:33.712Z,30.00
2023-04-22T14:36:01.885Z,29.90
2023-04-22T14:38:30.202Z,29.80
2023-04-22T14:40:58.378Z,29.90
2023-04-22T14:43:26.532Z,30.00
2023-04-22T14:45:54.757Z,30.00
2023-04-22T14:48:29.986Z,30.00
2023-04-22T14:50:59.834Z,30.30
2023-04-22T14:53:28.306Z,30.20
2023-04-22T14:55:57.053Z,30.10
2023-04-22T14:58:27.021Z,30.10
2023-04-22T15:00:55.202Z,30.20
2023-04-22T15:03:24.845Z,30.30
2023-04-22T15:05:53.084Z,30.10
2023-04-22T15:08:21.723Z,29.90
2023-04-22T15:10:49.903Z,29.70
2023-04-22T15:13:18.111Z,29.40
2023-04-22T15:15:46.796Z,29.30
2023-04-22T15:18:14.968Z,29.20
2023-04-22T15:20:44.762Z,29.10
2023-04-22T15:23:12.948Z,29.00
2023-04-22T15:25:41.169Z,29.00
2023-04-22T15:28:09.403Z,29.00
2023-04-22T15:30:37.600Z,29.00
2023-04-22T15:33:06.157Z,28.90
2023-04-22T15:35:34.406Z,28.90
2023-04-22T15:38:04.007Z,28.80
2023-04-22T15:40:31.895Z,28.70
2023-04-22T15:42:59.961Z,28.60
2023-04-22T15:45:28.137Z,28.70
2023-04-22T15:47:56.563Z,28.70
2023-04-22T15:50:25.124Z,28.60
2023-04-22T15:52:54.080Z,28.70
2023-04-22T15:55:23.950Z,28.60
2023-04-22T15:57:52.011Z,28.60
2023-04-22T16:00:20.224Z,28.50
2023-04-22T16:02:55.218Z,28.50
2023-04-22T16:05:24.915Z,28.50
2023-04-22T16:07:53.300Z,28.40
2023-04-22T16:10:23.348Z,28.30
2023-04-22T16:12:51.878Z,28.30
2023-04-22T16:15:20.058Z,28.30
2023-04-22T16:17:48.152Z,28.30
2023-04-22T16:20:16.291Z,28.30
2023-04-22T16:22:44.367Z,28.20
2023-04-22T16:25:12.496Z,28.20
2023-04-22T16:27:42.042Z,28.20
2023-04-22T16:30:10.274Z,28.20
2023-04-22T16:32:38.396Z,28.20
2023-04-22T16:35:07.556Z,28.10
2023-04-22T16:37:36.744Z,28.10
2023-04-22T16:40:06.186Z,28.10
2023-04-22T16:42:34.312Z,28.10
2023-04-22T16:45:03.837Z,28.00
2023-04-22T16:47:31.873Z,28.00
2023-04-22T16:50:00.074Z,28.00
2023-04-22T16:52:28.246Z,27.90
2023-04-22T16:54:57.051Z,27.80
2023-04-22T16:57:25.098Z,27.80
2023-04-22T16:59:53.173Z,27.70
2023-04-22T17:02:22.829Z,27.70
2023-04-22T17:04:51.056Z,27.70
2023-04-22T17:07:19.199Z,27.60
2023-04-22T17:09:48.834Z,27.60
2023-04-22T17:12:16.780Z,27.50
2023-04-22T17:14:44.887Z,27.50
2023-04-22T17:17:13.760Z,27.40
2023-04-22T17:19:44.018Z,27.40
2023-04-22T17:22:12.607Z,27.40
2023-04-22T17:24:41.801Z,27.30
2023-04-22T17:27:09.882Z,27.30
2023-04-22T17:29:38.172Z,27.30
2023-04-22T17:32:06.706Z,27.30
2023-04-22T17:34:34.856Z,27.20
2023-04-22T17:37:04.292Z,27.20
2023-04-22T17:39:32.600Z,27.20
2023-04-22T17:42:00.717Z,27.20
2023-04-22T17:44:28.853Z,27.20
2023-04-22T17:46:56.966Z,27.10
2023-04-22T17:49:25.245Z,27.10
2023-04-22T17:51:53.318Z,27.00
2023-04-22T17:54:22.828Z,27.00
2023-04-22T17:56:50.898Z,27.00
2023-04-22T17:59:19.022Z,27.00
2023-04-22T18:01:47.118Z,26.90
2023-04-22T18:04:15.343Z,26.90
2023-04-22T18:06:43.498Z,26.90
2023-04-22T18:09:11.566Z,26.80
2023-04-22T18:11:41.205Z,26.80
2023-04-22T18:14:09.100Z,26.80
2023-04-22T18:16:37.275Z,26.70
2023-04-22T18:19:06.825Z,26.70
2023-04-22T18:21:34.952Z,26.60
2023-04-22T18:24:03.738Z,26.60
2023-04-22T18:26:32.269Z,26.50
2023-04-22T18:29:01.736Z,26.50
2023-04-22T18:31:30.006Z,26.50
2023-04-22T18:33:58.139Z,26.50
2023-04-22T18:36:27.605Z,26.50
2023-04-22T18:38:55.782Z,26.50
2023-04-22T18:41:25.319Z,26.50
2023-04-22T18:43:53.697Z,26.40
2023-04-22T18:46:23.850Z,26.40
2023-04-22T18:48:52.049Z,26.40
2023-04-22T18:51:20.142Z,26.40
2023-04-22T18:53:49.060Z,26.40
2023-04-22T18:56:17.195Z,26.30
2023-04-22T18:58:45.280Z,26.30
2023-04-22T19:01:14.438Z,26.30
2023-04-22T19:03:44.157Z,26.30
2023-04-22T19:06:12.874Z,26.20
2023-04-22T19:08:40.947Z,26.20
2023-04-22T19:11:09.229Z,26.20
2023-04-22T19:13:37.360Z,26.10
2023-04-22T19:16:05.618Z,26.10
2023-04-22T19:18:33.727Z,26.10
2023-04-22T19:21:03.501Z,26.10
2023-04-22T19:23:31.630Z,26.10
2023-04-22T19:25:59.734Z,26.00
2023-04-22T19:28:27.825Z,25.90
2023-04-22T19:30:56.387Z,25.80
2023-04-22T19:33:24.501Z,25.70
2023-04-22T19:35:52.639Z,25.70
2023-04-22T19:38:23.215Z,25.70
2023-04-22T19:40:51.424Z,25.80
2023-04-22T19:43:19.583Z,25.70
2023-04-22T19:45:47.678Z,25.70
2023-04-22T19:48:16.404Z,25.70
2023-04-22T19:50:45.626Z,25.70
2023-04-22T19:53:14.764Z,25.70
2023-04-22T19:55:45.067Z,25.70
2023-04-22T19:58:13.928Z,25.60
2023-04-22T20:00:42.833Z,25.60
2023-04-22T20:03:13.242Z,25.60
2023-04-22T20:05:42.307Z,25.60
2023-04-22T20:08:11.362Z,25.50
2023-04-22T20:10:39.648Z,25.50
2023-04-22T20:13:09.739Z,25.50
2023-04-22T20:15:38.140Z,25.50
2023-04-22T20:18:06.857Z,25.50
2023-04-22T20:20:35.283Z,25.50
2023-04-22T20:23:10.239Z,25.50
2023-04-22T20:25:40.700Z,25.40
2023-04-22T20:28:10.895Z,25.40
2023-04-22T20:30:39.583Z,25.40
2023-04-22T20:33:08.029Z,25.40
2023-04-22T20:35:36.729Z,25.40
2023-04-22T20:38:06.742Z,25.30
2023-04-22T20:40:35.936Z,25.30
2023-04-22T20:43:04.368Z,25.30
2023-04-22T20:45:33.814Z,25.30
2023-04-22T20:48:01.987Z,25.30
2023-04-22T20:50:33.469Z,25.20
2023-04-22T20:53:02.115Z,25.20
2023-04-22T20:55:30.231Z,25.20
2023-04-22T20:57:58.348Z,25.20
2023-04-22T21:00:27.030Z,25.20
2023-04-22T21:02:57.022Z,25.20
2023-04-22T21:05:26.141Z,25.20
2023-04-22T21:07:55.123Z,25.10
2023-04-22T21:10:24.128Z,25.10
2023-04-22T21:12:54.996Z,25.10
2023-04-22T21:15:25.079Z,25.10
2023-04-22T21:17:56.586Z,25.10
2023-04-22T21:20:28.215Z,25.10
2023-04-22T21:22:59.650Z,25.00
2023-04-22T21:25:28.814Z,25.10
2023-04-22T21:27:57.513Z,25.10
2023-04-22T21:30:26.312Z,25.00
2023-04-22T21:32:54.439Z,25.00
2023-04-22T21:35:24.005Z,25.00
2023-04-22T21:37:54.110Z,24.90
2023-04-22T21:40:22.369Z,24.90
2023-04-22T21:42:50.650Z,24.90
2023-04-22T21:45:18.914Z,24.90
2023-04-22T21:47:47.246Z,24.90
2023-04-22T21:50:15.403Z,24.90
2023-04-22T21:52:43.617Z,24.90
2023-04-22T21:55:13.092Z,24.90
2023-04-22T21:57:41.261Z,24.80
2023-04-22T22:00:15.107Z,24.80
2023-04-22T22:02:43.649Z,24.80
2023-04-22T22:05:12.357Z,24.80
2023-04-22T22:07:40.680Z,24.80
2023-04-22T22:10:10.645Z,24.70
2023-04-22T22:12:40.132Z,24.70
2023-04-22T22:15:09.917Z,24.70
2023-04-22T22:17:40.139Z,24.70
2023-04-22T22:20:11.870Z,24.70
2023-04-22T22:22:40.468Z,24.70
2023-04-22T22:25:10.381Z,24.60
2023-04-22T22:27:41.813Z,24.60
2023-04-22T22:30:10.631Z,24.60
2023-04-22T22:32:38.888Z,24.60
2023-04-22T22:35:07.587Z,24.50
2023-04-22T22:37:35.913Z,24.50
2023-04-22T22:40:04.537Z,24.50
2023-04-22T22:42:32.729Z,24.50
2023-04-22T22:45:02.226Z,24.40
2023-04-22T22:47:30.453Z,24.50
2023-04-22T22:49:58.606Z,24.40
2023-04-22T22:52:26.782Z,24.40
2023-04-22T22:54:54.974Z,24.40
2023-04-22T22:57:23.137Z,24.40
2023-04-22T22:59:51.214Z,24.30
2023-04-22T23:02:20.881Z,24.30
2023-04-22T23:04:48.931Z,24.30
2023-04-22T23:07:17.857Z,24.30
2023-04-22T23:09:45.936Z,24.30
2023-04-22T23:12:14.025Z,24.30
2023-04-22T23:14:42.505Z,24.20
2023-04-22T23:17:11.001Z,24.20
2023-04-22T23:19:42.393Z,24.20
2023-04-22T23:22:12.539Z,24.20
2023-04-22T23:24:41.594Z,24.20
2023-04-22T23:27:10.541Z,24.20
2023-04-22T23:29:39.659Z,24.10
2023-04-22T23:32:09.223Z,24.10
2023-04-22T23:34:40.801Z,24.10
2023-04-22T23:37:13.656Z,24.10
2023-04-22T23:39:42.507Z,24.10
2023-04-22T23:42:10.822Z,24.00
2023-04-22T23:44:39.107Z,24.00
2023-04-22T23:47:07.600Z,24.00
2023-04-22T23:49:35.708Z,24.00
2023-04-22T23:52:03.896Z,24.00
2023-04-22T23:54:33.851Z,24.00
2023-04-22T23:57:02.832Z,24.00
2023-04-22T23:59:31.585Z,24.00
